sensor_id;sensor_type;location;lat;lon;timestamp;pressure;altitude;pressure_sealevel;temperature;humidity
11349;BME280;5729;43.570;27.826;2022-07-06T00:00:25;98909.81;;;21.83;100.00
11349;BME280;5729;43.570;27.826;2022-07-06T00:02:51;98914.63;;;21.79;100.00
11349;BME280;5729;43.570;27.826;2022-07-06T00:05:17;98904.34;;;21.83;100.00
11349;BME280;5729;43.570;27.826;2022-07-06T00:07:42;98912.09;;;21.71;100.00
11349;BME280;5729;43.570;27.826;2022-07-06T00:10:08;98904.22;;;21.73;100.00
11349;BME280;5729;43.570;27.826;2022-07-06T00:12:33;98910.81;;;21.76;100.00
11349;BME280;5729;43.570;27.826;2022-07-06T00:14:59;98912.00;;;21.75;100.00
11349;BME280;5729;43.570;27.826;2022-07-06T00:17:24;98914.41;;;21.73;100.00
11349;BME280;5729;43.570;27.826;2022-07-06T00:19:50;98920.25;;;21.75;100.00
11349;BME280;5729;43.570;27.826;2022-07-06T00:22:15;98912.19;;;21.68;100.00
11349;BME280;5729;43.570;27.826;2022-07-06T00:24:41;98908.59;;;21.71;100.00
11349;BME280;5729;43.570;27.826;2022-07-06T00:27:06;98901.56;;;21.70;100.00
11349;BME280;5729;43.570;27.826;2022-07-06T00:29:32;98906.28;;;21.69;100.00
11349;BME280;5729;43.570;27.826;2022-07-06T00:31:58;98887.28;;;21.62;100.00
11349;BME280;5729;43.570;27.826;2022-07-06T00:34:23;98904.56;;;21.76;100.00
11349;BME280;5729;43.570;27.826;2022-07-06T00:36:48;98894.44;;;21.72;100.00
11349;BME280;5729;43.570;27.826;2022-07-06T00:39:14;98897.88;;;21.77;100.00
11349;BME280;5729;43.570;27.826;2022-07-06T00:41:39;98897.97;;;21.73;100.00
11349;BME280;5729;43.570;27.826;2022-07-06T00:44:08;98897.63;;;21.71;100.00
11349;BME280;5729;43.570;27.826;2022-07-06T00:46:34;98892.91;;;21.71;100.00
11349;BME280;5729;43.570;27.826;2022-07-06T00:49:00;98890.72;;;21.66;100.00
11349;BME280;5729;43.570;27.826;2022-07-06T00:51:29;98887.38;;;21.59;100.00
11349;BME280;5729;43.570;27.826;2022-07-06T00:54:02;98896.19;;;21.66;100.00
11349;BME280;5729;43.570;27.826;2022-07-06T00:56:29;98893.88;;;21.65;100.00
11349;BME280;5729;43.570;27.826;2022-07-06T00:58:56;98892.69;;;21.66;100.00
11349;BME280;5729;43.570;27.826;2022-07-06T01:01:22;98889.69;;;21.60;100.00
11349;BME280;5729;43.570;27.826;2022-07-06T01:03:47;98884.22;;;21.60;100.00
11349;BME280;5729;43.570;27.826;2022-07-06T01:06:13;98886.09;;;21.63;100.00
11349;BME280;5729;43.570;27.826;2022-07-06T01:08:39;98883.88;;;21.58;100.00
11349;BME280;5729;43.570;27.826;2022-07-06T01:11:05;98877.75;;;21.54;100.00
11349;BME280;5729;43.570;27.826;2022-07-06T01:13:32;98887.72;;;21.61;100.00
11349;BME280;5729;43.570;27.826;2022-07-06T01:15:58;98886.53;;;21.62;100.00
11349;BME280;5729;43.570;27.826;2022-07-06T01:18:24;98879.94;;;21.59;100.00
11349;BME280;5729;43.570;27.826;2022-07-06T01:20:50;98886.94;;;21.60;100.00
11349;BME280;5729;43.570;27.826;2022-07-06T01:23:15;98882.66;;;21.59;100.00
11349;BME280;5729;43.570;27.826;2022-07-06T01:25:41;98881.91;;;21.59;100.00
11349;BME280;5729;43.570;27.826;2022-07-06T01:28:06;98884.31;;;21.57;100.00
11349;BME280;5729;43.570;27.826;2022-07-06T01:30:32;98885.97;;;21.54;100.00
11349;BME280;5729;43.570;27.826;2022-07-06T01:32:58;98855.50;;;21.36;100.00
11349;BME280;5729;43.570;27.826;2022-07-06T01:35:24;98873.44;;;21.53;100.00
11349;BME280;5729;43.570;27.826;2022-07-06T01:37:51;98872.00;;;21.49;100.00
11349;BME280;5729;43.570;27.826;2022-07-06T01:40:17;98870.38;;;21.51;100.00
11349;BME280;5729;43.570;27.826;2022-07-06T01:42:42;98877.50;;;21.49;100.00
11349;BME280;5729;43.570;27.826;2022-07-06T01:45:08;98873.97;;;21.48;100.00
11349;BME280;5729;43.570;27.826;2022-07-06T01:47:35;98859.03;;;21.36;100.00
11349;BME280;5729;43.570;27.826;2022-07-06T01:50:01;98879.88;;;21.47;100.00
11349;BME280;5729;43.570;27.826;2022-07-06T01:52:28;98879.13;;;21.46;100.00
11349;BME280;5729;43.570;27.826;2022-07-06T01:54:57;98878.13;;;21.40;100.00
11349;BME280;5729;43.570;27.826;2022-07-06T01:57:22;98858.47;;;21.29;100.00
11349;BME280;5729;43.570;27.826;2022-07-06T01:59:48;98881.72;;;21.37;100.00
11349;BME280;5729;43.570;27.826;2022-07-06T02:02:13;98882.94;;;21.36;100.00
11349;BME280;5729;43.570;27.826;2022-07-06T02:04:40;98883.19;;;21.42;100.00
11349;BME280;5729;43.570;27.826;2022-07-06T02:07:06;98887.88;;;21.41;100.00
11349;BME280;5729;43.570;27.826;2022-07-06T02:09:31;98865.22;;;21.24;100.00
11349;BME280;5729;43.570;27.826;2022-07-06T02:11:57;98884.47;;;21.37;100.00
11349;BME280;5729;43.570;27.826;2022-07-06T02:14:22;98880.19;;;21.36;100.00
11349;BME280;5729;43.570;27.826;2022-07-06T02:16:47;98872.38;;;21.34;100.00
11349;BME280;5729;43.570;27.826;2022-07-06T02:19:13;98864.63;;;21.33;100.00
11349;BME280;5729;43.570;27.826;2022-07-06T02:21:38;98869.84;;;21.27;100.00
11349;BME280;5729;43.570;27.826;2022-07-06T02:24:04;98869.41;;;21.29;100.00
11349;BME280;5729;43.570;27.826;2022-07-06T02:26:29;98871.47;;;21.25;100.00
11349;BME280;5729;43.570;27.826;2022-07-06T02:28:55;98868.31;;;21.26;100.00
11349;BME280;5729;43.570;27.826;2022-07-06T02:31:20;98859.31;;;21.26;100.00
11349;BME280;5729;43.570;27.826;2022-07-06T02:33:46;98853.41;;;21.11;100.00
11349;BME280;5729;43.570;27.826;2022-07-06T02:36:11;98859.53;;;21.19;100.00
11349;BME280;5729;43.570;27.826;2022-07-06T02:38:37;98858.03;;;21.14;100.00
11349;BME280;5729;43.570;27.826;2022-07-06T02:41:02;98870.53;;;21.15;100.00
11349;BME280;5729;43.570;27.826;2022-07-06T02:43:28;98859.66;;;21.12;100.00
11349;BME280;5729;43.570;27.826;2022-07-06T02:45:53;98861.19;;;21.13;100.00
11349;BME280;5729;43.570;27.826;2022-07-06T02:48:18;98860.00;;;21.14;100.00
11349;BME280;5729;43.570;27.826;2022-07-06T02:50:46;98861.31;;;21.09;100.00
11349;BME280;5729;43.570;27.826;2022-07-06T02:53:12;98846.25;;;21.01;100.00
11349;BME280;5729;43.570;27.826;2022-07-06T02:55:37;98827.78;;;20.89;100.00
11349;BME280;5729;43.570;27.826;2022-07-06T02:58:03;98855.16;;;21.05;100.00
11349;BME280;5729;43.570;27.826;2022-07-06T03:00:29;98852.41;;;21.05;100.00
11349;BME280;5729;43.570;27.826;2022-07-06T03:02:54;98852.06;;;21.03;100.00
11349;BME280;5729;43.570;27.826;2022-07-06T03:05:20;98832.59;;;20.85;100.00
11349;BME280;5729;43.570;27.826;2022-07-06T03:07:45;98844.91;;;20.93;100.00
11349;BME280;5729;43.570;27.826;2022-07-06T03:10:10;98853.13;;;20.93;100.00
11349;BME280;5729;43.570;27.826;2022-07-06T03:12:36;98850.72;;;20.95;100.00
11349;BME280;5729;43.570;27.826;2022-07-06T03:15:01;98819.97;;;20.75;100.00
11349;BME280;5729;43.570;27.826;2022-07-06T03:17:27;98863.47;;;21.01;100.00
11349;BME280;5729;43.570;27.826;2022-07-06T03:19:52;98857.84;;;20.92;100.00
11349;BME280;5729;43.570;27.826;2022-07-06T03:22:18;98862.63;;;20.88;100.00
11349;BME280;5729;43.570;27.826;2022-07-06T03:24:43;98849.66;;;20.76;100.00
11349;BME280;5729;43.570;27.826;2022-07-06T03:27:09;98856.47;;;20.84;100.00
11349;BME280;5729;43.570;27.826;2022-07-06T03:29:34;98855.63;;;20.87;100.00
11349;BME280;5729;43.570;27.826;2022-07-06T03:32:00;98857.59;;;20.87;100.00
11349;BME280;5729;43.570;27.826;2022-07-06T03:34:26;98858.44;;;20.84;100.00
11349;BME280;5729;43.570;27.826;2022-07-06T03:36:51;98860.84;;;20.65;100.00
11349;BME280;5729;43.570;27.826;2022-07-06T03:39:17;98844.69;;;20.55;100.00
11349;BME280;5729;43.570;27.826;2022-07-06T03:41:42;98862.75;;;20.69;100.00
11349;BME280;5729;43.570;27.826;2022-07-06T03:44:07;98861.13;;;20.71;100.00
11349;BME280;5729;43.570;27.826;2022-07-06T03:46:33;98861.72;;;20.62;100.00
11349;BME280;5729;43.570;27.826;2022-07-06T03:48:58;98862.75;;;20.69;100.00
11349;BME280;5729;43.570;27.826;2022-07-06T03:51:24;98851.00;;;20.84;100.00
11349;BME280;5729;43.570;27.826;2022-07-06T03:53:49;98858.53;;;20.80;100.00
11349;BME280;5729;43.570;27.826;2022-07-06T03:56:15;98841.75;;;20.78;100.00
11349;BME280;5729;43.570;27.826;2022-07-06T03:58:58;98858.53;;;20.96;100.00
11349;BME280;5729;43.570;27.826;2022-07-06T04:01:24;98862.47;;;20.95;100.00
11349;BME280;5729;43.570;27.826;2022-07-06T04:03:50;98868.09;;;20.88;100.00
11349;BME280;5729;43.570;27.826;2022-07-06T04:06:16;98863.31;;;20.92;100.00
11349;BME280;5729;43.570;27.826;2022-07-06T04:08:41;98861.09;;;20.87;100.00
11349;BME280;5729;43.570;27.826;2022-07-06T04:11:07;98852.34;;;20.92;100.00
11349;BME280;5729;43.570;27.826;2022-07-06T04:13:32;98857.41;;;20.94;100.00
11349;BME280;5729;43.570;27.826;2022-07-06T04:15:58;98842.75;;;21.00;100.00
11349;BME280;5729;43.570;27.826;2022-07-06T04:18:24;98847.16;;;21.11;100.00
11349;BME280;5729;43.570;27.826;2022-07-06T04:20:49;98845.66;;;21.10;100.00
11349;BME280;5729;43.570;27.826;2022-07-06T04:23:15;98846.22;;;21.17;100.00
11349;BME280;5729;43.570;27.826;2022-07-06T04:25:40;98819.88;;;21.07;100.00
11349;BME280;5729;43.570;27.826;2022-07-06T04:28:06;98837.06;;;21.24;100.00
11349;BME280;5729;43.570;27.826;2022-07-06T04:30:32;98839.41;;;21.38;100.00
11349;BME280;5729;43.570;27.826;2022-07-06T04:32:58;98839.53;;;21.47;100.00
11349;BME280;5729;43.570;27.826;2022-07-06T04:35:24;98835.72;;;21.57;100.00
11349;BME280;5729;43.570;27.826;2022-07-06T04:37:49;98844.72;;;21.70;100.00
11349;BME280;5729;43.570;27.826;2022-07-06T04:40:15;98820.28;;;21.63;100.00
11349;BME280;5729;43.570;27.826;2022-07-06T04:42:40;98849.38;;;21.86;100.00
11349;BME280;5729;43.570;27.826;2022-07-06T04:45:06;98849.06;;;21.97;100.00
11349;BME280;5729;43.570;27.826;2022-07-06T04:47:32;98848.84;;;22.04;100.00
11349;BME280;5729;43.570;27.826;2022-07-06T04:49:58;98849.41;;;22.12;100.00
11349;BME280;5729;43.570;27.826;2022-07-06T04:52:23;98851.16;;;22.18;100.00
11349;BME280;5729;43.570;27.826;2022-07-06T04:54:49;98850.50;;;22.27;100.00
11349;BME280;5729;43.570;27.826;2022-07-06T04:57:14;98854.69;;;22.31;100.00
11349;BME280;5729;43.570;27.826;2022-07-06T04:59:40;98849.38;;;22.37;100.00
11349;BME280;5729;43.570;27.826;2022-07-06T05:02:05;98852.03;;;22.40;100.00
11349;BME280;5729;43.570;27.826;2022-07-06T05:04:31;98852.03;;;22.40;100.00
11349;BME280;5729;43.570;27.826;2022-07-06T05:06:56;98836.22;;;22.44;100.00
11349;BME280;5729;43.570;27.826;2022-07-06T05:09:22;98847.72;;;22.52;100.00
11349;BME280;5729;43.570;27.826;2022-07-06T05:11:47;98855.06;;;22.68;100.00
11349;BME280;5729;43.570;27.826;2022-07-06T05:14:13;98849.69;;;22.77;100.00
11349;BME280;5729;43.570;27.826;2022-07-06T05:16:38;98853.53;;;22.79;100.00
11349;BME280;5729;43.570;27.826;2022-07-06T05:19:04;98853.28;;;22.87;100.00
11349;BME280;5729;43.570;27.826;2022-07-06T05:21:29;98845.38;;;22.89;100.00
11349;BME280;5729;43.570;27.826;2022-07-06T05:23:55;98856.19;;;23.05;100.00
11349;BME280;5729;43.570;27.826;2022-07-06T05:26:20;98854.75;;;23.13;100.00
11349;BME280;5729;43.570;27.826;2022-07-06T05:28:45;98855.13;;;23.24;100.00
11349;BME280;5729;43.570;27.826;2022-07-06T05:31:11;98854.41;;;23.33;100.00
11349;BME280;5729;43.570;27.826;2022-07-06T05:33:36;98848.22;;;23.41;100.00
11349;BME280;5729;43.570;27.826;2022-07-06T05:36:02;98859.63;;;23.52;100.00
11349;BME280;5729;43.570;27.826;2022-07-06T05:38:28;98861.97;;;23.63;100.00
11349;BME280;5729;43.570;27.826;2022-07-06T05:40:53;98863.56;;;23.73;100.00
11349;BME280;5729;43.570;27.826;2022-07-06T05:43:18;98864.09;;;23.81;100.00
11349;BME280;5729;43.570;27.826;2022-07-06T05:45:44;98859.72;;;23.93;100.00
11349;BME280;5729;43.570;27.826;2022-07-06T05:48:09;98858.66;;;23.99;100.00
11349;BME280;5729;43.570;27.826;2022-07-06T05:50:54;98853.06;;;24.12;100.00
11349;BME280;5729;43.570;27.826;2022-07-06T05:53:19;98853.09;;;24.21;100.00
11349;BME280;5729;43.570;27.826;2022-07-06T05:55:45;98845.47;;;24.25;100.00
11349;BME280;5729;43.570;27.826;2022-07-06T05:58:12;98849.94;;;24.41;100.00
11349;BME280;5729;43.570;27.826;2022-07-06T06:00:38;98862.06;;;24.52;100.00
11349;BME280;5729;43.570;27.826;2022-07-06T06:03:03;98852.59;;;24.63;100.00
11349;BME280;5729;43.570;27.826;2022-07-06T06:05:29;98853.53;;;24.69;100.00
11349;BME280;5729;43.570;27.826;2022-07-06T06:07:54;98860.59;;;24.79;100.00
11349;BME280;5729;43.570;27.826;2022-07-06T06:10:20;98846.97;;;24.84;100.00
11349;BME280;5729;43.570;27.826;2022-07-06T06:12:47;98846.69;;;24.91;100.00
11349;BME280;5729;43.570;27.826;2022-07-06T06:15:13;98851.00;;;25.02;100.00
11349;BME280;5729;43.570;27.826;2022-07-06T06:17:39;98844.25;;;25.12;100.00
11349;BME280;5729;43.570;27.826;2022-07-06T06:20:09;98837.66;;;25.18;100.00
11349;BME280;5729;43.570;27.826;2022-07-06T06:22:55;98837.19;;;25.29;100.00
11349;BME280;5729;43.570;27.826;2022-07-06T06:25:46;98838.72;;;25.39;100.00
11349;BME280;5729;43.570;27.826;2022-07-06T06:28:12;98836.72;;;25.49;100.00
11349;BME280;5729;43.570;27.826;2022-07-06T06:30:38;98831.63;;;25.56;100.00
11349;BME280;5729;43.570;27.826;2022-07-06T06:33:12;98827.66;;;25.66;100.00
11349;BME280;5729;43.570;27.826;2022-07-06T06:35:41;98839.41;;;25.76;100.00
11349;BME280;5729;43.570;27.826;2022-07-06T06:38:07;98834.34;;;25.84;100.00
11349;BME280;5729;43.570;27.826;2022-07-06T06:40:32;98827.25;;;25.92;100.00
11349;BME280;5729;43.570;27.826;2022-07-06T06:42:58;98833.97;;;26.00;100.00
11349;BME280;5729;43.570;27.826;2022-07-06T06:45:23;98828.88;;;26.08;100.00
11349;BME280;5729;43.570;27.826;2022-07-06T06:47:49;98832.06;;;26.15;100.00
11349;BME280;5729;43.570;27.826;2022-07-06T06:50:14;98834.78;;;26.24;97.14
11349;BME280;5729;43.570;27.826;2022-07-06T06:52:40;98830.16;;;26.30;97.31
11349;BME280;5729;43.570;27.826;2022-07-06T06:55:05;98823.25;;;26.35;89.47
11349;BME280;5729;43.570;27.826;2022-07-06T06:57:31;98835.19;;;26.41;91.87
11349;BME280;5729;43.570;27.826;2022-07-06T06:59:56;98831.59;;;26.50;92.25
11349;BME280;5729;43.570;27.826;2022-07-06T07:02:22;98842.97;;;26.52;88.51
11349;BME280;5729;43.570;27.826;2022-07-06T07:04:48;98833.72;;;26.55;87.30
11349;BME280;5729;43.570;27.826;2022-07-06T07:07:13;98833.53;;;26.58;85.60
11349;BME280;5729;43.570;27.826;2022-07-06T07:09:39;98820.66;;;26.55;83.39
11349;BME280;5729;43.570;27.826;2022-07-06T07:12:04;98836.06;;;26.71;83.43
11349;BME280;5729;43.570;27.826;2022-07-06T07:14:30;98836.16;;;26.76;86.39
11349;BME280;5729;43.570;27.826;2022-07-06T07:16:55;98833.06;;;26.84;78.81
11349;BME280;5729;43.570;27.826;2022-07-06T07:19:21;98836.69;;;26.90;85.32
11349;BME280;5729;43.570;27.826;2022-07-06T07:21:46;98839.75;;;26.92;81.98
11349;BME280;5729;43.570;27.826;2022-07-06T07:24:12;98839.91;;;26.97;86.80
11349;BME280;5729;43.570;27.826;2022-07-06T07:26:37;98818.78;;;26.85;86.87
11349;BME280;5729;43.570;27.826;2022-07-06T07:29:03;98825.88;;;27.01;81.25
11349;BME280;5729;43.570;27.826;2022-07-06T07:31:28;98846.91;;;27.22;82.28
11349;BME280;5729;43.570;27.826;2022-07-06T07:33:54;98838.91;;;27.24;78.68
11349;BME280;5729;43.570;27.826;2022-07-06T07:36:22;98836.03;;;27.33;79.62
11349;BME280;5729;43.570;27.826;2022-07-06T07:38:49;98837.00;;;27.45;79.35
11349;BME280;5729;43.570;27.826;2022-07-06T07:41:14;98840.94;;;27.53;75.14
11349;BME280;5729;43.570;27.826;2022-07-06T07:43:40;98842.00;;;27.56;77.67
11349;BME280;5729;43.570;27.826;2022-07-06T07:46:05;98850.41;;;27.61;76.53
11349;BME280;5729;43.570;27.826;2022-07-06T07:48:30;98842.59;;;27.74;77.43
11349;BME280;5729;43.570;27.826;2022-07-06T07:50:56;98839.88;;;27.80;72.73
11349;BME280;5729;43.570;27.826;2022-07-06T07:53:21;98832.44;;;27.86;73.88
11349;BME280;5729;43.570;27.826;2022-07-06T07:55:47;98839.59;;;27.93;75.41
11349;BME280;5729;43.570;27.826;2022-07-06T07:58:12;98843.22;;;27.99;77.16
11349;BME280;5729;43.570;27.826;2022-07-06T08:00:38;98843.00;;;28.02;75.86
11349;BME280;5729;43.570;27.826;2022-07-06T08:03:03;98841.66;;;28.12;73.90
11349;BME280;5729;43.570;27.826;2022-07-06T08:05:29;98847.38;;;28.24;72.57
11349;BME280;5729;43.570;27.826;2022-07-06T08:07:54;98843.25;;;28.34;74.03
11349;BME280;5729;43.570;27.826;2022-07-06T08:10:20;98834.13;;;28.68;71.90
11349;BME280;5729;43.570;27.826;2022-07-06T08:12:46;98840.63;;;29.26;73.23
11349;BME280;5729;43.570;27.826;2022-07-06T08:15:11;98837.25;;;30.31;74.03
11349;BME280;5729;43.570;27.826;2022-07-06T08:17:36;98842.03;;;31.55;54.87
11349;BME280;5729;43.570;27.826;2022-07-06T08:20:05;98844.44;;;32.70;48.80
11349;BME280;5729;43.570;27.826;2022-07-06T08:22:30;98843.66;;;33.33;45.66
11349;BME280;5729;43.570;27.826;2022-07-06T08:24:56;98845.47;;;33.66;43.48
11349;BME280;5729;43.570;27.826;2022-07-06T08:27:21;98843.63;;;34.34;42.51
11349;BME280;5729;43.570;27.826;2022-07-06T08:29:47;98843.16;;;35.16;38.85
11349;BME280;5729;43.570;27.826;2022-07-06T08:32:12;98840.28;;;36.17;41.08
11349;BME280;5729;43.570;27.826;2022-07-06T08:34:38;98855.78;;;36.77;36.18
11349;BME280;5729;43.570;27.826;2022-07-06T08:37:04;98850.97;;;37.24;35.20
11349;BME280;5729;43.570;27.826;2022-07-06T08:39:29;98856.72;;;37.73;33.47
11349;BME280;5729;43.570;27.826;2022-07-06T08:41:56;98852.44;;;38.22;33.00
11349;BME280;5729;43.570;27.826;2022-07-06T08:44:23;98838.91;;;39.36;34.78
11349;BME280;5729;43.570;27.826;2022-07-06T08:46:49;98840.13;;;40.39;29.47
11349;BME280;5729;43.570;27.826;2022-07-06T08:49:17;98847.06;;;41.98;27.90
11349;BME280;5729;43.570;27.826;2022-07-06T08:51:43;98844.06;;;43.17;25.97
11349;BME280;5729;43.570;27.826;2022-07-06T08:54:10;98840.75;;;44.11;25.07
11349;BME280;5729;43.570;27.826;2022-07-06T08:56:37;98843.06;;;44.90;27.95
11349;BME280;5729;43.570;27.826;2022-07-06T08:59:03;98831.78;;;45.61;25.65
11349;BME280;5729;43.570;27.826;2022-07-06T09:01:29;98836.50;;;46.30;23.56
11349;BME280;5729;43.570;27.826;2022-07-06T09:03:55;98840.97;;;46.54;21.76
11349;BME280;5729;43.570;27.826;2022-07-06T09:06:25;98838.69;;;47.07;22.74
11349;BME280;5729;43.570;27.826;2022-07-06T09:08:53;98829.41;;;47.30;24.25
11349;BME280;5729;43.570;27.826;2022-07-06T09:11:23;98828.47;;;47.72;21.51
11349;BME280;5729;43.570;27.826;2022-07-06T09:13:52;98832.69;;;48.06;21.29
11349;BME280;5729;43.570;27.826;2022-07-06T09:16:25;98824.25;;;48.82;20.98
11349;BME280;5729;43.570;27.826;2022-07-06T09:18:52;98818.06;;;49.13;18.78
11349;BME280;5729;43.570;27.826;2022-07-06T09:21:29;98797.56;;;48.91;20.20
11349;BME280;5729;43.570;27.826;2022-07-06T09:24:00;98796.72;;;48.89;19.91
11349;BME280;5729;43.570;27.826;2022-07-06T09:26:27;98814.66;;;49.03;21.37
11349;BME280;5729;43.570;27.826;2022-07-06T09:28:55;98817.81;;;47.49;19.70
11349;BME280;5729;43.570;27.826;2022-07-06T09:31:21;98800.66;;;45.53;22.64
11349;BME280;5729;43.570;27.826;2022-07-06T09:34:13;98818.53;;;44.56;23.11
11349;BME280;5729;43.570;27.826;2022-07-06T09:36:49;98816.78;;;43.22;23.99
11349;BME280;5729;43.570;27.826;2022-07-06T09:39:20;98808.56;;;42.37;25.04
11349;BME280;5729;43.570;27.826;2022-07-06T09:41:50;98807.88;;;43.08;32.72
11349;BME280;5729;43.570;27.826;2022-07-06T09:44:33;98800.28;;;44.78;24.63
11349;BME280;5729;43.570;27.826;2022-07-06T09:47:01;98806.63;;;46.10;22.82
11349;BME280;5729;43.570;27.826;2022-07-06T09:49:28;98803.56;;;46.27;24.43
11349;BME280;5729;43.570;27.826;2022-07-06T09:51:58;98797.47;;;46.98;23.33
11349;BME280;5729;43.570;27.826;2022-07-06T09:54:25;98795.34;;;47.55;19.36
11349;BME280;5729;43.570;27.826;2022-07-06T09:56:51;98784.50;;;47.65;19.72
11349;BME280;5729;43.570;27.826;2022-07-06T09:59:23;98786.75;;;47.79;22.13
11349;BME280;5729;43.570;27.826;2022-07-06T10:01:53;98791.09;;;47.91;20.39
11349;BME280;5729;43.570;27.826;2022-07-06T10:04:20;98781.69;;;48.26;23.89
11349;BME280;5729;43.570;27.826;2022-07-06T10:06:46;98776.88;;;48.17;19.30
11349;BME280;5729;43.570;27.826;2022-07-06T10:09:13;98777.16;;;48.71;22.37
11349;BME280;5729;43.570;27.826;2022-07-06T10:11:49;98779.44;;;49.26;23.68
11349;BME280;5729;43.570;27.826;2022-07-06T10:14:18;98781.16;;;49.58;22.86
11349;BME280;5729;43.570;27.826;2022-07-06T10:16:46;98789.16;;;48.31;19.11
11349;BME280;5729;43.570;27.826;2022-07-06T10:19:14;98776.09;;;46.43;21.76
11349;BME280;5729;43.570;27.826;2022-07-06T10:21:40;98752.59;;;45.07;23.63
11349;BME280;5729;43.570;27.826;2022-07-06T10:24:07;98778.88;;;44.67;26.82
11349;BME280;5729;43.570;27.826;2022-07-06T10:26:35;98772.22;;;43.78;23.54
11349;BME280;5729;43.570;27.826;2022-07-06T10:29:05;98769.31;;;42.51;25.45
11349;BME280;5729;43.570;27.826;2022-07-06T10:31:33;98769.25;;;41.57;26.18
11349;BME280;5729;43.570;27.826;2022-07-06T10:34:04;98771.94;;;40.90;27.88
11349;BME280;5729;43.570;27.826;2022-07-06T10:36:31;98767.13;;;40.05;25.90
11349;BME280;5729;43.570;27.826;2022-07-06T10:38:57;98765.41;;;39.26;28.71
11349;BME280;5729;43.570;27.826;2022-07-06T10:41:33;98769.94;;;39.98;34.10
11349;BME280;5729;43.570;27.826;2022-07-06T10:44:23;98763.00;;;41.34;28.11
11349;BME280;5729;43.570;27.826;2022-07-06T10:46:56;98777.34;;;42.03;26.10
11349;BME280;5729;43.570;27.826;2022-07-06T10:49:23;98766.19;;;41.38;27.48
11349;BME280;5729;43.570;27.826;2022-07-06T10:51:50;98751.94;;;41.53;37.31
11349;BME280;5729;43.570;27.826;2022-07-06T10:54:17;98763.53;;;42.24;32.46
11349;BME280;5729;43.570;27.826;2022-07-06T10:59:29;98753.56;;;40.67;27.24
11349;BME280;5729;43.570;27.826;2022-07-06T11:02:19;98763.56;;;39.51;27.15
11349;BME280;5729;43.570;27.826;2022-07-06T11:04:46;98743.13;;;38.41;27.58
11349;BME280;5729;43.570;27.826;2022-07-06T11:07:14;98753.69;;;37.63;29.16
11349;BME280;5729;43.570;27.826;2022-07-06T11:09:40;98741.69;;;37.21;31.39
11349;BME280;5729;43.570;27.826;2022-07-06T11:12:20;98730.72;;;36.76;30.66
11349;BME280;5729;43.570;27.826;2022-07-06T11:14:49;98742.97;;;36.38;33.62
11349;BME280;5729;43.570;27.826;2022-07-06T11:17:16;98746.75;;;36.28;37.44
11349;BME280;5729;43.570;27.826;2022-07-06T11:19:55;98740.22;;;36.59;31.15
11349;BME280;5729;43.570;27.826;2022-07-06T11:22:21;98741.06;;;36.81;31.32
11349;BME280;5729;43.570;27.826;2022-07-06T11:24:50;98739.09;;;37.43;30.37
11349;BME280;5729;43.570;27.826;2022-07-06T11:27:17;98736.34;;;38.00;30.16
11349;BME280;5729;43.570;27.826;2022-07-06T11:29:43;98733.59;;;38.44;31.19
11349;BME280;5729;43.570;27.826;2022-07-06T11:32:11;98724.81;;;39.14;27.64
11349;BME280;5729;43.570;27.826;2022-07-06T11:34:42;98724.41;;;40.01;26.76
11349;BME280;5729;43.570;27.826;2022-07-06T11:37:10;98717.09;;;40.53;25.44
11349;BME280;5729;43.570;27.826;2022-07-06T11:39:46;98711.97;;;40.99;25.59
11349;BME280;5729;43.570;27.826;2022-07-06T11:42:14;98716.88;;;41.49;35.40
11349;BME280;5729;43.570;27.826;2022-07-06T11:44:40;98710.06;;;41.94;27.38
11349;BME280;5729;43.570;27.826;2022-07-06T11:47:07;98710.69;;;41.67;27.74
11349;BME280;5729;43.570;27.826;2022-07-06T11:49:35;98712.47;;;41.38;27.82
11349;BME280;5729;43.570;27.826;2022-07-06T11:52:05;98713.97;;;41.64;31.48
11349;BME280;5729;43.570;27.826;2022-07-06T11:54:31;98712.81;;;41.84;27.87
11349;BME280;5729;43.570;27.826;2022-07-06T11:56:59;98700.56;;;41.64;25.14
11349;BME280;5729;43.570;27.826;2022-07-06T11:59:27;98705.53;;;41.31;31.98
11349;BME280;5729;43.570;27.826;2022-07-06T12:02:03;98704.19;;;41.57;26.03
11349;BME280;5729;43.570;27.826;2022-07-06T12:04:30;98701.22;;;41.30;26.10
11349;BME280;5729;43.570;27.826;2022-07-06T12:07:00;98691.22;;;40.24;26.70
11349;BME280;5729;43.570;27.826;2022-07-06T12:09:29;98694.56;;;39.52;28.93
11349;BME280;5729;43.570;27.826;2022-07-06T12:11:55;98687.97;;;39.35;29.66
11349;BME280;5729;43.570;27.826;2022-07-06T12:14:20;98686.00;;;38.69;27.07
11349;BME280;5729;43.570;27.826;2022-07-06T12:16:48;98698.47;;;38.01;28.58
11349;BME280;5729;43.570;27.826;2022-07-06T12:19:14;98679.38;;;37.30;29.09
11349;BME280;5729;43.570;27.826;2022-07-06T12:21:47;98691.84;;;36.80;34.07
11349;BME280;5729;43.570;27.826;2022-07-06T12:24:24;98686.41;;;36.82;31.75
11349;BME280;5729;43.570;27.826;2022-07-06T12:26:51;98685.31;;;36.37;33.46
11349;BME280;5729;43.570;27.826;2022-07-06T12:29:17;98683.94;;;35.91;32.38
11349;BME280;5729;43.570;27.826;2022-07-06T12:31:47;98677.03;;;35.53;32.07
11349;BME280;5729;43.570;27.826;2022-07-06T12:34:14;98676.97;;;35.26;31.56
11349;BME280;5729;43.570;27.826;2022-07-06T12:36:52;98674.91;;;34.95;32.72
11349;BME280;5729;43.570;27.826;2022-07-06T12:39:20;98676.91;;;34.63;34.59
11349;BME280;5729;43.570;27.826;2022-07-06T12:41:47;98680.59;;;34.33;36.34
11349;BME280;5729;43.570;27.826;2022-07-06T12:44:13;98670.75;;;34.08;36.95
11349;BME280;5729;43.570;27.826;2022-07-06T12:46:40;98673.06;;;33.85;38.02
11349;BME280;5729;43.570;27.826;2022-07-06T12:54:50;98666.44;;;34.07;40.02
11349;BME280;5729;43.570;27.826;2022-07-06T12:57:20;98663.28;;;34.72;39.45
11349;BME280;5729;43.570;27.826;2022-07-06T13:02:33;98656.13;;;36.07;36.76
11349;BME280;5729;43.570;27.826;2022-07-06T13:05:11;98650.09;;;36.50;36.51